UBJ weather

Yamaguchi Ube Airport
Ube, Yamaguchi Prefecture, Japan

Public forecast

Using degrees Celsius for public forecast. Weather courtesy of forecast.io.

METAR (pilot weather report)

Retrieved 2019/05/23 02:00 UTC (41 minutes ago):

RJDC 230200Z 13006KT CAVOK 21/15 Q1011

TAF (pilot weather forecast)

Forecast is more than 12 hours old.

Closest forecast is Kitakyūshū Airport, 13.2 nm (24.4 km) WSW. Retrieved 2019/05/22 00:30 UTC (1 day ago):

TAF TAF RJFR 222309Z 2300/2406 07006KT 9999 FEW030 BECMG 2312/2315 24005KT BECMG 2400/2403 06006KT BECMG 2403/2406 33015KT